createdAt,value
2019-01-31T00:04:53.244Z,-8.24
2019-01-31T00:07:59.513Z,-8.33
2019-01-31T00:11:05.710Z,-8.48
2019-01-31T00:14:12.247Z,-8.58
2019-01-31T00:17:18.794Z,-8.64
2019-01-31T00:20:25.332Z,-8.75
2019-01-31T00:23:31.517Z,-8.75
2019-01-31T00:26:25.122Z,-8.71
2019-01-31T00:29:31.367Z,-8.76
2019-01-31T00:32:37.940Z,-8.74
2019-01-31T00:35:44.493Z,-8.79
2019-01-31T00:38:56.849Z,-8.76
2019-01-31T00:41:59.463Z,-8.76
2019-01-31T00:45:05.981Z,-8.79
2019-01-31T00:47:56.581Z,-8.79
2019-01-31T00:51:10.657Z,-8.86
2019-01-31T00:54:04.537Z,-8.97
2019-01-31T00:57:11.237Z,-9.11
2019-01-31T01:00:26.104Z,-9.14
2019-01-31T01:03:32.370Z,-9.24
2019-01-31T01:06:38.299Z,-9.35
2019-01-31T01:09:29.803Z,-9.44
2019-01-31T01:12:36.324Z,-9.49
2019-01-31T01:15:42.607Z,-9.47
2019-01-31T01:18:48.875Z,-9.49
2019-01-31T01:21:44.861Z,-9.00
2019-01-31T01:28:27.306Z,-8.99
2019-01-31T01:31:22.873Z,-9.02
2019-01-31T02:25:27.525Z,-9.56
2019-01-31T02:28:07.651Z,-9.50
2019-01-31T02:34:33.716Z,-9.45
2019-01-31T02:37:40.452Z,-9.44
2019-01-31T02:40:46.948Z,-9.40
2019-01-31T02:43:53.553Z,-9.29
2019-01-31T02:47:00.102Z,-9.13
2019-01-31T02:50:06.599Z,-9.10
2019-01-31T02:53:13.156Z,-9.14
2019-01-31T02:56:19.712Z,-9.20
2019-01-31T02:59:09.857Z,-9.29
2019-01-31T03:02:16.074Z,-9.37
2019-01-31T03:05:22.588Z,-9.42
2019-01-31T03:08:28.516Z,-9.46
2019-01-31T03:15:18.101Z,-9.50
2019-01-31T03:18:24.300Z,-9.50
2019-01-31T03:21:30.818Z,-9.46
2019-01-31T03:24:41.865Z,-9.45
2019-01-31T03:27:48.376Z,-9.45
2019-01-31T03:30:52.148Z,-9.41
2019-01-31T03:33:58.409Z,-9.44
2019-01-31T03:37:04.954Z,-9.45
2019-01-31T03:40:11.480Z,-9.36
2019-01-31T03:43:02.327Z,-9.17
2019-01-31T03:45:39.584Z,-8.91
2019-01-31T03:48:33.887Z,-8.95
2019-01-31T03:51:29.052Z,-8.98
2019-01-31T03:54:35.326Z,-9.19
2019-01-31T03:57:48.119Z,-9.32
2019-01-31T04:00:54.438Z,-9.36
2019-01-31T04:04:00.989Z,-9.55
2019-01-31T04:06:32.806Z,-9.74
2019-01-31T04:09:01.169Z,-9.85
2019-01-31T04:11:29.450Z,-9.97
2019-01-31T04:13:57.617Z,-10.07
2019-01-31T04:16:25.383Z,-10.17
2019-01-31T04:22:02.521Z,-10.21
2019-01-31T04:24:30.965Z,-10.20
2019-01-31T04:29:53.782Z,-9.77
2019-01-31T04:33:02.319Z,-9.60
2019-01-31T04:35:30.512Z,-9.29
2019-01-31T04:37:58.652Z,-9.13
2019-01-31T04:41:06.883Z,-9.10
2019-01-31T04:44:15.372Z,-9.09
2019-01-31T04:46:43.796Z,-9.26
2019-01-31T04:49:12.036Z,-9.47
2019-01-31T04:51:39.718Z,-9.53
2019-01-31T04:54:07.476Z,-9.65
2019-01-31T04:56:35.648Z,-9.73
2019-01-31T04:59:03.939Z,-9.73
2019-01-31T05:02:12.443Z,-9.63
2019-01-31T05:04:40.195Z,-9.60
2019-01-31T05:07:08.712Z,-9.57
2019-01-31T05:09:36.867Z,-9.42
2019-01-31T05:15:00.319Z,-9.43
2019-01-31T05:17:28.434Z,-9.45
2019-01-31T05:19:56.626Z,-9.42
2019-01-31T05:22:24.695Z,-9.38
2019-01-31T05:24:52.804Z,-9.34
2019-01-31T05:27:21.447Z,-9.20
2019-01-31T05:29:49.620Z,-8.89
2019-01-31T05:32:18.029Z,-8.58
2019-01-31T05:34:46.200Z,-8.74
2019-01-31T05:37:14.335Z,-8.88
2019-01-31T05:39:42.808Z,-8.98
2019-01-31T05:42:11.266Z,-8.95
2019-01-31T05:44:39.523Z,-8.85
2019-01-31T05:47:07.192Z,-8.80
2019-01-31T05:49:35.692Z,-8.79
2019-01-31T05:52:04.105Z,-8.82
2019-01-31T05:54:32.504Z,-8.78
2019-01-31T06:00:13.121Z,-8.95
2019-01-31T06:03:20.930Z,-8.86
2019-01-31T06:05:49.037Z,-8.80
2019-01-31T06:11:26.192Z,-8.30
2019-01-31T06:13:54.352Z,-8.10
2019-01-31T06:16:22.893Z,-7.97
2019-01-31T06:18:51.418Z,-8.00
2019-01-31T06:21:19.612Z,-8.00
2019-01-31T06:23:47.390Z,-7.92
2019-01-31T06:26:15.789Z,-7.76
2019-01-31T06:28:44.283Z,-7.70
2019-01-31T06:31:11.973Z,-7.69
2019-01-31T06:33:40.394Z,-7.58
2019-01-31T06:36:08.832Z,-7.42
2019-01-31T06:38:36.964Z,-7.32
2019-01-31T06:41:05.034Z,-7.26
2019-01-31T06:43:33.236Z,-7.25
2019-01-31T06:46:01.635Z,-7.17
2019-01-31T06:48:29.369Z,-7.21
2019-01-31T06:50:57.451Z,-7.18
2019-01-31T06:53:25.621Z,-7.11
2019-01-31T06:55:53.121Z,-6.98
2019-01-31T06:58:20.897Z,-6.90
2019-01-31T07:00:49.046Z,-6.88
2019-01-31T07:03:17.583Z,-6.69
2019-01-31T07:05:45.546Z,-6.60
2019-01-31T07:08:12.978Z,-6.56
2019-01-31T07:10:40.395Z,-6.46
2019-01-31T07:13:08.747Z,-6.33
2019-01-31T07:15:36.946Z,-6.29
2019-01-31T07:18:05.483Z,-6.34
2019-01-31T07:20:33.641Z,-6.33
2019-01-31T07:23:01.693Z,-6.24
2019-01-31T07:25:29.522Z,-6.32
2019-01-31T07:27:58.057Z,-6.28
2019-01-31T07:30:26.864Z,-6.16
2019-01-31T07:32:55.904Z,-5.90
2019-01-31T07:35:24.380Z,-5.76
2019-01-31T07:40:47.504Z,-5.65
2019-01-31T07:43:15.701Z,-5.57
2019-01-31T07:45:44.238Z,-5.39
2019-01-31T07:48:12.294Z,-5.23
2019-01-31T07:50:40.781Z,-5.15
2019-01-31T07:53:08.498Z,-5.18
2019-01-31T07:55:36.534Z,-5.24
2019-01-31T07:58:05.227Z,-5.13
2019-01-31T08:00:33.662Z,-4.96
2019-01-31T08:03:02.095Z,-4.93
2019-01-31T08:05:29.833Z,-4.84
2019-01-31T08:11:06.744Z,-4.82
2019-01-31T08:13:35.227Z,-4.88
2019-01-31T08:19:38.536Z,-4.80
2019-01-31T08:22:06.290Z,-4.71
2019-01-31T08:24:33.953Z,-4.64
2019-01-31T08:27:02.449Z,-4.61
2019-01-31T08:29:31.030Z,-4.60
2019-01-31T08:31:59.231Z,-4.59
2019-01-31T08:34:27.416Z,-4.60
2019-01-31T08:37:35.522Z,-4.59
2019-01-31T08:40:43.983Z,-4.49
2019-01-31T08:43:11.749Z,-4.31
2019-01-31T08:45:39.826Z,-4.21
2019-01-31T08:51:03.073Z,-3.99
2019-01-31T08:53:31.690Z,-3.83
2019-01-31T08:56:00.054Z,-3.65
2019-01-31T08:59:08.556Z,-3.45
2019-01-31T09:01:36.834Z,-3.40
2019-01-31T09:06:59.826Z,-3.25
2019-01-31T09:10:08.302Z,-3.19
2019-01-31T09:12:36.888Z,-3.13
2019-01-31T09:15:45.689Z,-3.13
2019-01-31T09:18:14.197Z,-3.03
2019-01-31T09:21:03.345Z,-2.96
2019-01-31T09:24:09.936Z,-2.95
2019-01-31T09:27:16.258Z,-2.77
2019-01-31T09:30:27.697Z,-2.49
2019-01-31T09:33:33.914Z,-2.31
2019-01-31T09:36:40.100Z,-1.92
2019-01-31T09:39:46.655Z,-1.76
2019-01-31T09:42:36.741Z,-1.21
2019-01-31T09:45:27.939Z,-1.13
2019-01-31T09:48:20.185Z,-1.37
2019-01-31T09:51:26.688Z,-1.67
2019-01-31T09:54:33.228Z,-1.87
2019-01-31T09:57:39.775Z,-1.93
2019-01-31T10:00:45.968Z,-1.93
2019-01-31T10:03:52.164Z,-1.59
2019-01-31T10:06:58.677Z,-1.52
2019-01-31T10:10:05.291Z,-1.49
2019-01-31T10:13:11.572Z,-1.12
2019-01-31T10:16:17.696Z,-1.08
2019-01-31T10:19:24.227Z,-0.89
2019-01-31T10:22:30.824Z,-0.69
2019-01-31T10:25:07.808Z,-0.53
2019-01-31T10:28:14.298Z,-0.75
2019-01-31T10:31:20.647Z,-0.87
2019-01-31T10:34:27.199Z,-0.76
2019-01-31T10:37:33.708Z,-0.34
2019-01-31T10:40:40.238Z,0.19
2019-01-31T10:43:46.754Z,0.06
2019-01-31T10:46:36.023Z,0.13
2019-01-31T10:49:27.018Z,0.09
2019-01-31T10:52:33.518Z,0.14
2019-01-31T10:55:39.424Z,-0.25
2019-01-31T10:58:45.633Z,-0.73
2019-01-31T11:01:52.178Z,-0.99
2019-01-31T11:04:47.623Z,-1.24
2019-01-31T11:07:54.157Z,-1.07
2019-01-31T11:11:00.668Z,-1.02
2019-01-31T11:17:27.078Z,-0.73
2019-01-31T11:20:20.780Z,-0.32
2019-01-31T11:23:26.979Z,-0.06
2019-01-31T11:26:33.225Z,-0.06
2019-01-31T11:29:25.332Z,0.52
2019-01-31T11:32:31.891Z,1.01
2019-01-31T11:35:38.077Z,0.99
2019-01-31T11:38:32.272Z,1.40
2019-01-31T11:41:24.152Z,1.68
2019-01-31T11:44:19.006Z,1.89
2019-01-31T11:47:10.534Z,1.76
2019-01-31T11:50:16.743Z,1.95
2019-01-31T11:53:23.261Z,1.89
2019-01-31T11:56:29.805Z,1.87
2019-01-31T11:58:59.944Z,1.90
2019-01-31T12:01:28.180Z,2.13
2019-01-31T12:03:59.733Z,2.20
2019-01-31T12:06:28.223Z,2.12
2019-01-31T12:08:56.867Z,1.85
2019-01-31T12:11:25.407Z,1.79
2019-01-31T12:13:53.626Z,1.68
2019-01-31T12:16:21.763Z,1.82
2019-01-31T12:18:50.342Z,2.09
2019-01-31T12:21:18.299Z,2.22
2019-01-31T12:23:45.873Z,1.82
2019-01-31T12:26:14.498Z,1.46
2019-01-31T12:28:43.027Z,1.42
2019-01-31T12:31:11.267Z,1.34
2019-01-31T12:33:39.737Z,1.58
2019-01-31T12:36:48.269Z,1.72
2019-01-31T12:39:16.017Z,1.99
2019-01-31T12:42:24.117Z,1.69
2019-01-31T12:44:52.391Z,1.38
2019-01-31T12:47:20.977Z,1.22
2019-01-31T12:50:29.149Z,1.04
2019-01-31T12:52:57.246Z,1.19
2019-01-31T12:55:25.319Z,0.75
2019-01-31T12:57:53.506Z,0.51
2019-01-31T13:00:41.024Z,0.97
2019-01-31T13:03:49.126Z,1.18
2019-01-31T13:06:17.600Z,1.58
2019-01-31T13:09:05.296Z,2.27
2019-01-31T13:11:33.399Z,2.76
2019-01-31T13:14:41.875Z,2.72
2019-01-31T13:17:50.417Z,2.46
2019-01-31T13:20:20.575Z,1.50
2019-01-31T13:22:49.376Z,0.80
2019-01-31T13:25:57.922Z,0.49
2019-01-31T13:29:06.532Z,0.35
2019-01-31T13:31:34.439Z,0.32
2019-01-31T13:34:03.213Z,0.44
2019-01-31T13:36:31.469Z,0.98
2019-01-31T13:38:59.644Z,1.10
2019-01-31T13:41:28.134Z,1.02
2019-01-31T13:43:57.657Z,1.02
2019-01-31T13:46:26.176Z,1.12
2019-01-31T13:48:53.938Z,1.12
2019-01-31T13:51:22.604Z,1.94
2019-01-31T13:53:50.360Z,2.26
2019-01-31T13:59:27.302Z,3.18
2019-01-31T14:01:55.929Z,3.95
2019-01-31T14:05:04.181Z,4.70
2019-01-31T14:07:32.814Z,5.54
2019-01-31T14:10:01.116Z,5.83
2019-01-31T14:13:11.500Z,5.76
2019-01-31T14:15:39.824Z,6.01
2019-01-31T14:21:02.583Z,6.16
2019-01-31T14:26:26.419Z,5.26
2019-01-31T14:28:55.070Z,4.06
2019-01-31T14:31:23.640Z,3.10
2019-01-31T14:34:31.454Z,2.31
2019-01-31T14:36:59.600Z,1.83
2019-01-31T14:39:28.231Z,2.31
2019-01-31T14:42:36.834Z,3.77
2019-01-31T14:45:44.707Z,4.90
2019-01-31T14:48:13.279Z,5.27
2019-01-31T14:53:37.087Z,5.12
2019-01-31T14:56:05.333Z,5.45
2019-01-31T14:59:13.473Z,5.49
2019-01-31T15:01:41.548Z,5.30
2019-01-31T15:04:09.694Z,4.74
2019-01-31T15:06:37.887Z,5.02
2019-01-31T15:09:47.962Z,4.83
2019-01-31T15:12:16.182Z,4.85
2019-01-31T15:14:43.596Z,4.49
2019-01-31T15:17:12.133Z,3.74
2019-01-31T15:19:40.747Z,2.89
2019-01-31T15:25:44.240Z,1.51
2019-01-31T15:28:52.875Z,0.59
2019-01-31T15:32:01.430Z,-0.24
2019-01-31T15:34:29.528Z,-0.83
2019-01-31T15:36:57.680Z,-1.17
2019-01-31T15:40:06.187Z,-1.50
2019-01-31T15:45:29.416Z,-2.02
2019-01-31T15:48:37.682Z,-2.28
2019-01-31T15:51:05.449Z,-2.47
2019-01-31T15:56:13.630Z,-2.87
2019-01-31T15:58:41.516Z,-3.02
2019-01-31T16:01:11.655Z,-3.09
2019-01-31T16:03:39.510Z,-3.21
2019-01-31T16:06:07.599Z,-3.35
2019-01-31T16:08:35.782Z,-3.38
2019-01-31T16:11:44.236Z,-3.54
2019-01-31T16:14:12.043Z,-3.64
2019-01-31T16:17:20.609Z,-3.79
2019-01-31T16:19:48.741Z,-3.84
2019-01-31T16:22:16.767Z,-3.95
2019-01-31T16:24:44.951Z,-4.03
2019-01-31T16:27:13.047Z,-4.08
2019-01-31T16:30:21.183Z,-4.13
2019-01-31T16:32:49.844Z,-4.15
2019-01-31T16:35:58.000Z,-4.31
2019-01-31T16:38:26.218Z,-4.41
2019-01-31T16:40:54.510Z,-4.05
2019-01-31T16:43:22.775Z,-3.87
2019-01-31T16:45:50.901Z,-3.80
2019-01-31T16:48:19.068Z,-3.80
2019-01-31T16:51:27.673Z,-3.79
2019-01-31T16:54:35.836Z,-3.90
2019-01-31T16:57:44.343Z,-3.90
2019-01-31T17:00:54.915Z,-3.96
2019-01-31T17:03:23.391Z,-4.03
2019-01-31T17:06:31.872Z,-4.20
2019-01-31T17:09:00.035Z,-4.35
2019-01-31T17:11:28.178Z,-4.50
2019-01-31T17:13:56.414Z,-4.56
2019-01-31T17:16:24.774Z,-4.54
2019-01-31T17:18:54.926Z,-4.53
2019-01-31T17:21:22.994Z,-4.44
2019-01-31T17:24:31.093Z,-4.41
2019-01-31T17:26:59.322Z,-4.44
2019-01-31T17:30:07.874Z,-4.47
2019-01-31T17:32:36.036Z,-4.38
2019-01-31T17:35:44.358Z,-4.29
2019-01-31T17:38:52.906Z,-4.28
2019-01-31T17:42:04.217Z,-4.35
2019-01-31T17:44:30.939Z,-4.37
2019-01-31T17:49:33.856Z,-4.31
2019-01-31T17:52:02.040Z,-4.16
2019-01-31T17:54:30.202Z,-3.99
2019-01-31T17:57:38.478Z,-3.85
2019-01-31T18:00:49.198Z,-3.80
2019-01-31T18:03:17.142Z,-3.74
2019-01-31T18:05:44.845Z,-3.60
2019-01-31T18:08:13.231Z,-3.57
2019-01-31T18:10:41.343Z,-3.56
2019-01-31T18:13:09.537Z,-3.56
2019-01-31T18:15:42.201Z,-3.53
2019-01-31T18:18:07.910Z,-3.58
2019-01-31T18:20:36.259Z,-3.52
2019-01-31T18:23:44.561Z,-3.48
2019-01-31T18:26:12.309Z,-3.37
2019-01-31T18:28:52.522Z,-3.30
2019-01-31T18:31:20.420Z,-3.24
2019-01-31T18:33:48.204Z,-3.08
2019-01-31T18:36:16.778Z,-2.87
2019-01-31T18:38:44.752Z,-2.62
2019-01-31T18:41:12.541Z,-2.50
2019-01-31T18:43:41.325Z,-2.47
2019-01-31T18:46:09.486Z,-2.47
2019-01-31T18:51:12.108Z,-2.49
2019-01-31T18:53:40.777Z,-2.51
2019-01-31T18:56:49.222Z,-2.49
2019-01-31T18:59:57.436Z,-2.43
2019-01-31T19:03:05.930Z,-2.38
2019-01-31T19:05:34.552Z,-2.39
2019-01-31T19:08:05.448Z,-2.42
2019-01-31T19:10:42.783Z,-2.37
2019-01-31T19:13:03.122Z,-2.26
2019-01-31T19:18:26.151Z,-2.25
2019-01-31T19:20:54.572Z,-2.23
2019-01-31T19:23:22.655Z,-2.18
2019-01-31T19:28:25.623Z,-2.15
2019-01-31T19:30:54.127Z,-2.09
2019-01-31T19:34:02.359Z,-2.08
2019-01-31T19:36:31.059Z,-2.00
2019-01-31T19:39:39.708Z,-1.91
2019-01-31T19:42:08.188Z,-1.93
2019-01-31T19:45:16.700Z,-1.90
2019-01-31T19:47:52.200Z,-1.89
2019-01-31T19:51:00.800Z,-1.82
2019-01-31T19:53:28.934Z,-1.86
2019-01-31T19:56:37.541Z,-1.91
2019-01-31T20:02:55.061Z,-1.98
2019-01-31T20:06:03.553Z,-1.95
2019-01-31T20:11:06.294Z,-1.98
2019-01-31T20:14:14.232Z,-1.89
2019-01-31T20:19:38.012Z,-1.77
2019-01-31T20:22:46.660Z,-1.73
2019-01-31T20:25:55.112Z,-1.70
2019-01-31T20:28:35.829Z,-1.68
2019-01-31T20:31:15.698Z,-1.69
2019-01-31T20:33:43.812Z,-1.71
2019-01-31T20:36:52.421Z,-1.70
2019-01-31T20:39:20.982Z,-1.70
2019-01-31T20:41:54.347Z,-1.68
2019-01-31T20:47:33.636Z,-1.71
2019-01-31T20:50:01.740Z,-1.75
2019-01-31T20:55:04.267Z,-1.64
2019-01-31T20:57:32.671Z,-1.69
2019-01-31T21:00:40.424Z,-1.62
2019-01-31T21:03:08.370Z,-1.63
2019-01-31T21:06:17.026Z,-1.64
2019-01-31T21:08:45.127Z,-1.51
2019-01-31T21:11:13.210Z,-1.54
2019-01-31T21:13:40.829Z,-1.57
2019-01-31T21:16:09.860Z,-1.55
2019-01-31T21:19:18.023Z,-1.55
2019-01-31T21:24:55.791Z,-1.49
2019-01-31T21:27:43.149Z,-1.50
2019-01-31T21:30:53.636Z,-1.42
2019-01-31T21:33:23.300Z,-1.46
2019-01-31T21:36:31.939Z,-1.46
2019-01-31T21:39:00.533Z,-1.53
2019-01-31T21:44:22.021Z,-1.56
2019-01-31T21:46:50.288Z,-1.54
2019-01-31T21:49:37.065Z,-1.58
2019-01-31T21:52:06.146Z,-1.59
2019-01-31T21:55:14.956Z,-1.56
2019-01-31T21:58:02.590Z,-1.62
2019-01-31T22:00:50.002Z,-1.64
2019-01-31T22:03:18.815Z,-1.60
2019-01-31T22:05:47.798Z,-1.64
2019-01-31T22:11:25.053Z,-1.46
2019-01-31T22:13:53.923Z,-1.43
2019-01-31T22:16:23.058Z,-1.37
2019-01-31T22:19:10.706Z,-1.39
2019-01-31T22:24:34.140Z,-1.48
2019-01-31T22:27:21.601Z,-1.40
2019-01-31T22:30:01.758Z,-1.31
2019-01-31T22:33:10.282Z,-1.32
2019-01-31T22:38:47.717Z,-1.44
2019-01-31T22:41:15.112Z,-1.53
2019-01-31T22:43:43.578Z,-1.53
2019-01-31T22:46:11.268Z,-1.52
2019-01-31T22:48:39.855Z,-1.59
2019-01-31T22:51:07.940Z,-1.63
2019-01-31T22:53:36.113Z,-1.60
2019-01-31T22:56:44.633Z,-1.63
2019-01-31T22:59:53.119Z,-1.69
2019-01-31T23:02:21.527Z,-1.66
2019-01-31T23:04:49.281Z,-1.74
2019-01-31T23:07:17.857Z,-1.77
2019-01-31T23:09:45.621Z,-1.81
2019-01-31T23:12:13.751Z,-1.81
2019-01-31T23:14:41.880Z,-1.79
2019-01-31T23:17:10.011Z,-1.78
2019-01-31T23:19:38.154Z,-1.70
2019-01-31T23:22:06.526Z,-1.60
2019-01-31T23:24:34.662Z,-1.53
2019-01-31T23:27:02.482Z,-1.48
2019-01-31T23:30:10.621Z,-1.30
2019-01-31T23:32:39.062Z,-1.20
2019-01-31T23:35:07.432Z,-1.14
2019-01-31T23:38:15.543Z,-1.19
2019-01-31T23:40:44.111Z,-1.16
2019-01-31T23:46:21.397Z,-1.23
2019-01-31T23:49:29.188Z,-1.23
2019-01-31T23:51:56.631Z,-1.09
2019-01-31T23:54:25.035Z,-0.95
2019-01-31T23:56:53.565Z,-0.99
